Time;durP1;ratioP1;P1;durP2;ratioP2;P2;SDS_P1;SDS_P2;PMS_P1;PMS_P2;Temp;Humidity;BMP_temperature;BMP_pressure;BME280_temperature;BME280_humidity;BME280_pressure;Samples;Min_cycle;Max_cycle;Signal;HPM_P1;HPM_P2
2023/06/23 00:01:20;;;;;;;12.57;8.13;;;17.40;99.90;;;;;;5076117;28;20048;-58
2023/06/23 00:03:46;;;;;;;11.82;8.57;;;17.40;99.90;;;;;;5061673;28;20423;-56
2023/06/23 00:06:13;;;;;;;13.82;8.75;;;17.40;99.90;;;;;;5059549;28;20048;-56
2023/06/23 00:08:39;;;;;;;12.32;9.23;;;17.40;99.90;;;;;;5074350;28;20029;-57
2023/06/23 00:11:09;;;;;;;12.65;9.52;;;17.40;99.90;;;;;;5074534;28;20044;-57
2023/06/23 00:13:35;;;;;;;13.52;9.18;;;17.40;99.90;;;;;;5061435;28;20076;-57
2023/06/23 00:16:04;;;;;;;11.70;9.52;;;17.30;99.90;;;;;;5081197;28;20072;-57
2023/06/23 00:18:30;;;;;;;14.15;10.45;;;17.30;99.90;;;;;;5080764;28;20044;-56
2023/06/23 00:20:56;;;;;;;14.75;10.10;;;17.30;99.90;;;;;;5080966;28;20044;-56
2023/06/23 00:23:22;;;;;;;12.15;9.85;;;17.30;99.90;;;;;;5080137;28;20063;-56
2023/06/23 00:25:48;;;;;;;12.55;9.50;;;17.20;99.90;;;;;;5079286;28;20044;-57
2023/06/23 00:28:14;;;;;;;12.90;9.60;;;17.20;99.90;;;;;;5072361;28;20588;-57
2023/06/23 00:30:40;;;;;;;12.07;9.15;;;17.20;99.90;;;;;;5060520;28;20052;-56
2023/06/23 00:33:05;;;;;;;13.20;10.75;;;17.20;99.90;;;;;;5063806;28;20048;-56
2023/06/23 00:35:31;;;;;;;11.88;10.35;;;17.20;99.90;;;;;;5071549;28;20040;-57
2023/06/23 00:37:57;;;;;;;14.45;11.20;;;17.20;99.90;;;;;;5072915;28;20044;-56
2023/06/23 00:40:24;;;;;;;16.15;10.65;;;17.20;99.90;;;;;;5063045;28;20101;-57
2023/06/23 00:42:54;;;;;;;15.07;11.65;;;17.20;99.90;;;;;;5075032;28;20047;-56
2023/06/23 00:45:21;;;;;;;14.55;11.07;;;17.20;99.90;;;;;;5073099;28;20045;-57
2023/06/23 00:47:47;;;;;;;16.88;11.60;;;17.20;99.90;;;;;;5076166;28;20072;-56
2023/06/23 00:50:16;;;;;;;16.55;11.32;;;17.20;99.90;;;;;;5066001;28;20044;-57
2023/06/23 00:52:50;;;;;;;14.80;11.43;;;17.20;99.90;;;;;;5062267;28;20421;-56
2023/06/23 00:55:37;;;;;;;13.35;10.88;;;17.20;99.90;;;;;;5065189;28;20044;-57
2023/06/23 00:58:05;;;;;;;13.05;11.48;;;17.10;99.90;;;;;;5065996;28;20509;-57
2023/06/23 01:00:31;;;;;;;14.75;10.77;;;17.10;99.90;;;;;;5075496;28;20044;-56
2023/06/23 01:03:02;;;;;;;15.23;11.90;;;17.10;99.90;;;;;;5074690;28;20569;-57
2023/06/23 01:05:37;;;;;;;14.15;11.70;;;17.10;99.90;;;;;;5060802;28;20116;-57
2023/06/23 01:08:25;;;;;;;15.70;11.82;;;17.10;99.90;;;;;;5059706;28;20091;-56
2023/06/23 01:11:08;;;;;;;16.35;11.40;;;17.10;99.90;;;;;;5069015;28;20040;-56
2023/06/23 01:14:01;;;;;;;16.63;12.55;;;17.00;99.90;;;;;;5068342;28;20052;-56
2023/06/23 01:16:35;;;;;;;17.95;12.57;;;17.10;99.90;;;;;;5064356;28;20068;-57
2023/06/23 01:19:10;;;;;;;17.40;12.40;;;17.00;99.90;;;;;;5067913;28;20037;-56
2023/06/23 01:21:57;;;;;;;15.50;12.63;;;17.00;99.90;;;;;;5060507;28;20037;-57
2023/06/23 01:24:47;;;;;;;16.70;13.20;;;17.00;99.90;;;;;;5060883;28;20052;-56
2023/06/23 01:27:33;;;;;;;20.00;13.82;;;17.00;99.90;;;;;;5069812;28;20512;-57
2023/06/23 01:30:02;;;;;;;17.57;13.00;;;17.00;99.90;;;;;;5071788;28;20044;-56
2023/06/23 01:32:39;;;;;;;17.85;13.98;;;17.00;99.90;;;;;;5062543;28;20311;-56
2023/06/23 01:35:09;;;;;;;17.38;14.52;;;17.00;99.90;;;;;;5069451;28;20041;-56
2023/06/23 01:37:37;;;;;;;18.52;15.18;;;17.00;99.90;;;;;;5074085;28;20048;-57
2023/06/23 01:40:09;;;;;;;18.88;15.60;;;17.20;99.90;;;;;;5072091;28;20041;-56
2023/06/23 01:42:38;;;;;;;21.25;15.52;;;17.00;99.90;;;;;;5072837;28;20099;-56
2023/06/23 01:45:07;;;;;;;19.25;15.73;;;17.00;99.90;;;;;;5061247;28;20060;-56
2023/06/23 01:47:40;;;;;;;21.13;15.98;;;17.00;99.90;;;;;;5069395;28;20098;-56
2023/06/23 01:50:08;;;;;;;20.63;16.52;;;17.00;99.90;;;;;;5078171;28;20033;-57
2023/06/23 01:52:37;;;;;;;23.90;17.60;;;17.00;99.90;;;;;;5065786;28;20029;-56
2023/06/23 01:55:05;;;;;;;24.40;17.95;;;17.00;99.90;;;;;;5072645;28;20044;-57
2023/06/23 01:57:32;;;;;;;21.73;16.75;;;16.90;99.90;;;;;;5061184;28;20045;-56
2023/06/23 01:59:59;;;;;;;21.90;17.55;;;16.90;99.90;;;;;;5071522;28;20044;-56
2023/06/23 02:02:28;;;;;;;18.77;16.65;;;16.90;99.90;;;;;;5068697;28;20043;-56
2023/06/23 02:04:57;;;;;;;25.10;18.80;;;16.90;99.90;;;;;;5063741;28;20485;-56
2023/06/23 02:07:24;;;;;;;23.25;17.35;;;16.90;99.90;;;;;;5074891;28;20056;-56
2023/06/23 02:09:51;;;;;;;23.60;19.05;;;16.90;99.90;;;;;;5062188;28;20037;-57
2023/06/23 02:12:18;;;;;;;22.15;18.80;;;16.90;99.90;;;;;;5072762;28;20074;-56
2023/06/23 02:14:45;;;;;;;24.60;19.40;;;16.90;99.90;;;;;;5063104;28;20115;-56
2023/06/23 02:17:13;;;;;;;21.38;17.92;;;16.90;99.90;;;;;;5060732;28;20047;-56
2023/06/23 02:19:42;;;;;;;23.52;18.35;;;16.80;99.90;;;;;;5065622;28;20074;-56
2023/06/23 02:22:22;;;;;;;24.70;19.05;;;16.80;99.90;;;;;;5060594;28;20049;-56
2023/06/23 02:24:49;;;;;;;22.88;19.23;;;16.80;99.90;;;;;;5072414;28;20552;-56
2023/06/23 02:27:16;;;;;;;24.88;18.85;;;16.80;99.90;;;;;;5063869;28;20049;-57
2023/06/23 02:29:43;;;;;;;25.63;19.55;;;16.80;99.90;;;;;;5074610;28;20037;-57
2023/06/23 02:32:10;;;;;;;27.52;20.08;;;16.80;99.90;;;;;;5065366;28;20037;-57
2023/06/23 02:34:37;;;;;;;23.48;19.05;;;16.70;99.90;;;;;;5058383;28;20037;-57
2023/06/23 02:37:08;;;;;;;25.73;20.35;;;16.70;99.90;;;;;;5073924;28;20106;-57
2023/06/23 02:39:42;;;;;;;25.77;20.67;;;16.70;99.90;;;;;;5057999;28;20033;-57
2023/06/23 02:42:14;;;;;;;27.08;21.88;;;16.70;99.90;;;;;;5058071;28;20045;-56
2023/06/23 02:44:51;;;;;;;29.05;22.85;;;16.70;99.90;;;;;;5058197;28;20083;-57
2023/06/23 02:47:19;;;;;;;26.48;21.65;;;16.70;99.90;;;;;;5070038;28;20267;-56
2023/06/23 02:49:47;;;;;;;32.80;22.75;;;16.60;99.90;;;;;;5058715;28;20093;-57
2023/06/23 02:52:15;;;;;;;28.63;23.08;;;16.60;99.90;;;;;;5066975;28;20080;-57
2023/06/23 02:54:45;;;;;;;28.33;23.38;;;16.60;99.90;;;;;;5072696;28;20037;-56
2023/06/23 02:57:15;;;;;;;28.95;22.80;;;16.60;99.90;;;;;;5058017;28;20126;-57
2023/06/23 02:59:44;;;;;;;33.35;23.13;;;16.60;99.90;;;;;;5058207;28;20029;-57
2023/06/23 03:02:13;;;;;;;28.45;23.92;;;16.60;99.90;;;;;;5073121;28;20044;-56
2023/06/23 03:04:41;;;;;;;29.63;20.65;;;16.60;99.90;;;;;;5064415;28;20424;-56
2023/06/23 03:07:08;;;;;;;29.30;23.58;;;16.50;99.90;;;;;;5076971;28;20060;-57
2023/06/23 03:09:34;;;;;;;30.90;24.13;;;16.50;99.90;;;;;;5069874;28;20037;-57
2023/06/23 03:12:00;;;;;;;32.53;23.75;;;16.50;99.90;;;;;;5064497;28;20049;-56
2023/06/23 03:14:26;;;;;;;29.02;24.42;;;16.50;99.90;;;;;;5062032;28;20135;-56
2023/06/23 03:17:00;;;;;;;27.13;23.77;;;16.40;99.90;;;;;;5062041;28;20400;-57
2023/06/23 03:19:33;;;;;;;30.77;24.85;;;16.40;99.90;;;;;;5069499;28;20159;-57
2023/06/23 03:22:10;;;;;;;30.55;23.90;;;16.40;99.90;;;;;;5081595;28;20085;-56
2023/06/23 03:24:39;;;;;;;33.30;24.83;;;16.40;99.90;;;;;;5060445;28;20037;-57
2023/06/23 03:27:10;;;;;;;30.27;23.38;;;16.40;99.90;;;;;;5062854;28;20040;-57
2023/06/23 03:29:53;;;;;;;30.17;23.67;;;16.40;99.90;;;;;;5061587;28;20175;-57
2023/06/23 03:32:25;;;;;;;31.83;23.27;;;16.40;99.90;;;;;;5065303;28;20037;-57
2023/06/23 03:35:03;;;;;;;31.92;24.15;;;16.40;99.90;;;;;;5075314;28;20044;-56
2023/06/23 03:37:31;;;;;;;31.60;24.92;;;16.40;99.90;;;;;;5068587;28;20080;-57
2023/06/23 03:40:03;;;;;;;32.90;24.13;;;16.40;99.90;;;;;;5081790;28;20045;-56
2023/06/23 03:42:30;;;;;;;33.30;23.77;;;16.40;99.90;;;;;;5071683;28;20115;-56
2023/06/23 03:45:02;;;;;;;29.40;24.50;;;16.30;99.90;;;;;;5061358;28;20080;-56
2023/06/23 03:47:30;;;;;;;31.27;24.75;;;16.30;99.90;;;;;;5061198;28;20041;-57
2023/06/23 03:50:02;;;;;;;32.75;23.73;;;16.30;99.90;;;;;;5059683;28;20049;-56
2023/06/23 03:52:29;;;;;;;30.05;23.15;;;16.30;99.90;;;;;;5069920;28;20578;-56
2023/06/23 03:54:56;;;;;;;29.42;23.20;;;16.30;99.90;;;;;;5081312;28;20044;-56
2023/06/23 03:57:27;;;;;;;30.80;23.40;;;16.30;99.90;;;;;;5080922;28;20041;-56
2023/06/23 03:59:53;;;;;;;35.95;24.98;;;16.30;99.90;;;;;;5081372;28;20045;-56
2023/06/23 04:02:20;;;;;;;31.17;25.92;;;16.30;99.90;;;;;;5064504;28;20037;-56
2023/06/23 04:04:48;;;;;;;32.60;24.45;;;16.20;99.90;;;;;;5081003;28;20040;-56
2023/06/23 04:07:15;;;;;;;35.20;25.70;;;16.30;99.90;;;;;;5081494;28;20037;-56
2023/06/23 04:09:46;;;;;;;32.78;26.58;;;16.30;99.90;;;;;;5080829;28;20163;-56
2023/06/23 04:12:14;;;;;;;28.67;22.88;;;16.30;99.90;;;;;;5081213;28;20041;-55
2023/06/23 04:14:44;;;;;;;33.33;25.20;;;16.20;99.90;;;;;;5065251;28;20095;-57
2023/06/23 04:17:12;;;;;;;29.02;24.83;;;16.20;99.90;;;;;;5064673;28;20048;-57
2023/06/23 04:19:41;;;;;;;34.72;26.55;;;16.20;99.90;;;;;;5073367;28;20060;-56
2023/06/23 04:22:08;;;;;;;35.00;26.90;;;16.20;99.90;;;;;;5059171;28;20045;-57
2023/06/23 04:24:37;;;;;;;34.95;27.40;;;16.20;99.90;;;;;;5060243;28;20512;-57
2023/06/23 04:27:05;;;;;;;36.90;29.48;;;16.20;99.90;;;;;;5076313;28;20528;-56
2023/06/23 04:29:33;;;;;;;38.97;28.77;;;16.30;99.90;;;;;;5079368;28;20032;-56
2023/06/23 04:32:00;;;;;;;36.17;29.55;;;16.30;99.90;;;;;;5070732;28;20048;-55
2023/06/23 04:34:26;;;;;;;41.78;30.75;;;16.30;99.90;;;;;;5066836;28;20448;-56
2023/06/23 04:37:08;;;;;;;45.47;32.67;;;16.30;99.90;;;;;;5064639;28;20090;-56
2023/06/23 04:40:13;;;;;;;40.35;30.58;;;16.70;99.90;;;;;;5064076;28;20079;-57
2023/06/23 04:42:48;;;;;;;36.88;29.60;;;16.20;99.90;;;;;;5065588;28;20479;-56
2023/06/23 04:45:18;;;;;;;39.28;32.53;;;16.40;99.90;;;;;;5060673;28;20047;-56
2023/06/23 04:47:51;;;;;;;44.88;35.25;;;16.40;99.90;;;;;;5073305;28;20039;-57
2023/06/23 04:50:18;;;;;;;44.38;34.25;;;16.40;99.90;;;;;;5064337;28;20119;-56
2023/06/23 04:52:53;;;;;;;46.55;38.03;;;16.40;99.90;;;;;;5077237;28;20044;-56
2023/06/23 04:55:20;;;;;;;45.55;36.35;;;16.50;99.90;;;;;;5066919;28;20048;-56
2023/06/23 04:57:47;;;;;;;45.08;35.70;;;16.50;99.90;;;;;;5059894;28;20048;-56
2023/06/23 05:00:20;;;;;;;49.58;36.03;;;16.50;99.90;;;;;;5066796;28;20049;-56
2023/06/23 05:02:48;;;;;;;50.10;37.17;;;16.50;99.90;;;;;;5070440;28;20057;-56
2023/06/23 05:05:18;;;;;;;47.90;36.78;;;16.50;99.90;;;;;;5067312;28;20036;-56
2023/06/23 05:07:45;;;;;;;46.33;36.03;;;16.60;99.90;;;;;;5068697;28;20079;-56
2023/06/23 05:10:12;;;;;;;50.85;38.13;;;16.60;99.90;;;;;;5067961;28;20041;-56
2023/06/23 05:12:40;;;;;;;41.28;34.85;;;16.60;99.90;;;;;;5063552;28;20041;-56
2023/06/23 05:15:08;;;;;;;48.95;37.50;;;16.60;99.90;;;;;;5074852;28;20074;-57
2023/06/23 05:17:37;;;;;;;45.45;36.65;;;16.60;99.90;;;;;;5067900;28;20053;-56
2023/06/23 05:20:05;;;;;;;46.70;37.28;;;16.50;99.90;;;;;;5063125;28;20065;-56
2023/06/23 05:22:33;;;;;;;45.85;37.13;;;16.70;99.90;;;;;;5071527;28;20028;-56
2023/06/23 05:25:04;;;;;;;43.97;36.65;;;16.70;99.90;;;;;;5066198;28;20057;-56
2023/06/23 05:27:32;;;;;;;44.55;37.03;;;16.70;99.90;;;;;;5070533;28;20055;-56
2023/06/23 05:30:00;;;;;;;46.70;36.00;;;16.70;99.90;;;;;;5077608;28;20107;-56
2023/06/23 05:32:30;;;;;;;48.67;37.08;;;16.70;99.90;;;;;;5065196;28;20045;-56
2023/06/23 05:35:01;;;;;;;43.38;36.30;;;16.70;99.90;;;;;;5057771;28;20048;-56
2023/06/23 05:37:29;;;;;;;46.63;37.47;;;16.60;99.90;;;;;;5060350;28;20083;-57
2023/06/23 05:39:57;;;;;;;45.15;36.03;;;16.70;99.90;;;;;;5069764;28;20037;-57
2023/06/23 05:42:23;;;;;;;43.35;35.88;;;16.70;99.90;;;;;;5064987;28;20037;-57
2023/06/23 05:44:48;;;;;;;44.67;34.75;;;16.80;99.90;;;;;;5066504;28;20039;-57
2023/06/23 05:47:19;;;;;;;40.72;34.25;;;16.80;99.90;;;;;;5071370;28;20094;-57
2023/06/23 05:49:46;;;;;;;44.38;34.85;;;16.90;99.90;;;;;;5074334;28;20048;-57
2023/06/23 05:52:16;;;;;;;39.65;33.10;;;16.90;99.90;;;;;;5064048;28;20374;-57
2023/06/23 05:54:45;;;;;;;37.83;31.00;;;16.90;99.90;;;;;;5071105;28;20041;-57
2023/06/23 05:57:31;;;;;;;36.97;30.77;;;17.00;99.90;;;;;;5068602;28;20044;-57
2023/06/23 06:00:05;;;;;;;38.43;30.80;;;17.10;99.90;;;;;;5075529;28;20036;-57
2023/06/23 06:02:33;;;;;;;32.53;27.20;;;17.20;99.90;;;;;;5067201;28;20052;-57
2023/06/23 06:05:01;;;;;;;31.40;26.83;;;17.20;99.90;;;;;;5058766;28;20069;-57
2023/06/23 06:07:29;;;;;;;31.83;25.58;;;17.30;99.90;;;;;;5066932;28;20124;-57
2023/06/23 06:10:02;;;;;;;34.22;26.38;;;17.40;99.90;;;;;;5072890;28;20082;-57
2023/06/23 06:12:29;;;;;;;29.92;24.67;;;17.50;99.90;;;;;;5055947;28;20049;-57
2023/06/23 06:14:57;;;;;;;30.30;22.90;;;17.50;99.90;;;;;;5062687;28;20052;-57
2023/06/23 06:17:26;;;;;;;32.10;22.77;;;17.60;99.90;;;;;;5058647;28;20067;-57
2023/06/23 06:19:56;;;;;;;23.92;20.23;;;17.70;99.90;;;;;;5065072;28;20051;-57
2023/06/23 06:22:24;;;;;;;25.13;19.95;;;17.80;99.90;;;;;;5068897;28;20052;-56
2023/06/23 06:24:52;;;;;;;24.33;19.60;;;17.90;99.90;;;;;;5069414;28;20053;-57
2023/06/23 06:27:20;;;;;;;21.42;17.83;;;18.00;99.90;;;;;;5078671;28;20087;-57
2023/06/23 06:29:47;;;;;;;21.83;17.10;;;18.10;99.90;;;;;;5076289;28;20043;-57
2023/06/23 06:32:14;;;;;;;22.48;16.42;;;18.30;99.90;;;;;;5068094;28;20052;-57
2023/06/23 06:34:43;;;;;;;20.80;15.65;;;18.40;99.90;;;;;;5078722;28;20048;-57
2023/06/23 06:37:10;;;;;;;21.55;14.32;;;18.60;99.90;;;;;;5078017;28;20362;-57
2023/06/23 06:39:38;;;;;;;15.73;13.27;;;18.70;99.90;;;;;;5078650;28;20536;-56
2023/06/23 06:42:05;;;;;;;18.83;14.07;;;18.80;99.90;;;;;;5063680;28;20429;-57
2023/06/23 06:44:31;;;;;;;15.35;11.90;;;19.00;99.90;;;;;;5076897;28;20041;-57
2023/06/23 06:46:59;;;;;;;18.00;11.77;;;19.10;99.90;;;;;;5081980;28;20123;-57
2023/06/23 06:49:26;;;;;;;17.98;12.55;;;19.30;99.90;;;;;;5070998;28;20076;-57
2023/06/23 06:51:52;;;;;;;15.55;10.98;;;19.40;99.90;;;;;;5073523;28;20076;-57
2023/06/23 06:54:18;;;;;;;15.90;10.85;;;19.50;99.90;;;;;;5073457;28;20037;-57
2023/06/23 06:56:44;;;;;;;13.73;10.63;;;19.70;99.90;;;;;;5073682;28;20531;-56
2023/06/23 06:59:10;;;;;;;13.43;10.63;;;19.80;99.90;;;;;;5075366;28;20056;-58
2023/06/23 07:01:37;;;;;;;13.07;9.05;;;19.90;99.90;;;;;;5065783;28;20051;-56
2023/06/23 07:04:05;;;;;;;12.23;8.93;;;20.00;99.90;;;;;;5062486;28;20040;-56
2023/06/23 07:06:31;;;;;;;13.30;8.85;;;20.20;99.90;;;;;;5060988;28;20121;-55
2023/06/23 07:08:57;;;;;;;11.55;7.70;;;20.30;99.90;;;;;;5079254;28;20110;-56
2023/06/23 07:11:22;;;;;;;11.90;7.65;;;20.40;99.90;;;;;;5082367;28;20040;-57
2023/06/23 07:13:48;;;;;;;8.15;7.32;;;20.50;99.90;;;;;;5077050;28;20096;-56
2023/06/23 07:16:14;;;;;;;9.77;6.97;;;20.60;99.90;;;;;;5075163;28;20048;-58
2023/06/23 07:18:39;;;;;;;10.60;7.15;;;20.70;99.90;;;;;;5074878;28;20108;-57
2023/06/23 07:21:05;;;;;;;10.23;7.60;;;20.80;99.90;;;;;;5073217;28;20051;-57
2023/06/23 07:23:31;;;;;;;8.10;6.93;;;20.80;99.90;;;;;;5075099;28;20267;-57
2023/06/23 07:25:57;;;;;;;8.95;6.57;;;20.90;99.90;;;;;;5076861;28;20053;-57
2023/06/23 07:28:23;;;;;;;7.18;5.75;;;21.10;99.90;;;;;;5081191;28;20052;-57
2023/06/23 07:30:49;;;;;;;9.80;6.18;;;21.20;99.90;;;;;;5080865;28;20037;-56
2023/06/23 07:33:15;;;;;;;9.98;6.20;;;21.30;99.90;;;;;;5081093;28;20135;-57
2023/06/23 07:35:40;;;;;;;9.45;6.22;;;21.40;99.90;;;;;;5078464;28;20036;-56
2023/06/23 07:38:06;;;;;;;8.88;6.40;;;21.60;99.90;;;;;;5081805;28;20072;-57
2023/06/23 07:40:33;;;;;;;10.07;6.60;;;21.70;99.90;;;;;;5081940;28;20036;-57
2023/06/23 07:42:59;;;;;;;8.85;6.22;;;22.00;99.90;;;;;;5081375;28;20056;-57
2023/06/23 07:45:24;;;;;;;8.52;5.70;;;22.20;99.90;;;;;;5081812;28;20040;-57
2023/06/23 07:47:50;;;;;;;7.18;5.38;;;22.50;99.90;;;;;;5080782;28;20040;-57
2023/06/23 07:50:16;;;;;;;8.55;6.47;;;22.80;99.90;;;;;;5075531;28;20045;-56
2023/06/23 07:52:42;;;;;;;10.05;5.85;;;23.00;99.90;;;;;;5075464;28;20396;-55
2023/06/23 07:55:08;;;;;;;9.10;6.25;;;23.20;99.90;;;;;;5081256;28;20462;-58
2023/06/23 07:57:34;;;;;;;7.25;6.55;;;23.40;99.90;;;;;;5078599;28;20459;-58
2023/06/23 07:59:59;;;;;;;8.35;6.72;;;23.50;99.90;;;;;;5081179;28;20044;-58
2023/06/23 08:02:25;;;;;;;9.85;6.43;;;23.60;99.90;;;;;;5079807;28;20036;-57
2023/06/23 08:04:51;;;;;;;9.20;5.82;;;23.70;99.90;;;;;;5075621;28;20135;-57
2023/06/23 08:07:16;;;;;;;6.82;5.90;;;23.80;99.90;;;;;;5061242;28;20095;-58
2023/06/23 08:09:42;;;;;;;9.40;6.03;;;23.90;99.90;;;;;;5064874;28;20049;-58
2023/06/23 08:12:09;;;;;;;8.60;5.85;;;24.00;99.90;;;;;;5080947;28;20049;-55
2023/06/23 08:14:34;;;;;;;8.70;5.88;;;24.10;99.90;;;;;;5081190;28;20090;-55
2023/06/23 08:17:01;;;;;;;7.35;5.60;;;24.10;99.90;;;;;;5080970;28;20049;-56
2023/06/23 08:19:29;;;;;;;7.00;5.50;;;24.10;99.90;;;;;;5077476;28;20048;-56
2023/06/23 08:21:55;;;;;;;7.53;6.65;;;24.10;99.90;;;;;;5067046;28;20072;-56
2023/06/23 08:24:21;;;;;;;6.57;5.88;;;24.30;99.90;;;;;;5061056;28;20052;-56
2023/06/23 08:26:46;;;;;;;7.65;5.32;;;24.40;99.90;;;;;;5059043;28;20056;-56
2023/06/23 08:29:12;;;;;;;7.72;5.78;;;24.50;99.90;;;;;;5061005;28;20044;-56
2023/06/23 08:31:38;;;;;;;6.95;5.90;;;24.50;99.90;;;;;;5060810;28;20425;-59
2023/06/23 08:34:04;;;;;;;8.30;6.38;;;24.50;99.90;;;;;;5069477;28;20036;-55
2023/06/23 08:36:29;;;;;;;6.82;5.68;;;24.50;99.90;;;;;;5080865;28;20074;-56
2023/06/23 08:38:55;;;;;;;8.25;5.68;;;24.50;99.90;;;;;;5078834;28;20092;-56
2023/06/23 08:41:21;;;;;;;7.18;4.78;;;24.60;99.90;;;;;;5080600;28;20044;-56
2023/06/23 08:43:48;;;;;;;5.75;4.95;;;24.80;99.90;;;;;;5080383;28;20051;-56
2023/06/23 08:46:15;;;;;;;5.97;5.00;;;25.00;99.90;;;;;;5078276;28;20098;-56
2023/06/23 08:48:47;;;;;;;7.53;5.68;;;25.10;99.90;;;;;;5079328;28;20471;-56
2023/06/23 08:51:14;;;;;;;6.15;5.43;;;25.10;99.90;;;;;;5080403;28;20564;-56
2023/06/23 08:53:40;;;;;;;9.00;4.72;;;25.20;99.90;;;;;;5080486;28;20702;-56
2023/06/23 08:56:07;;;;;;;5.32;4.38;;;25.30;99.90;;;;;;5079588;28;20056;-56
2023/06/23 08:58:33;;;;;;;5.40;4.53;;;25.40;99.90;;;;;;5067352;28;20043;-56
2023/06/23 09:00:59;;;;;;;5.65;4.35;;;25.40;99.90;;;;;;5062098;28;20059;-56
2023/06/23 09:03:25;;;;;;;4.55;3.92;;;25.50;99.90;;;;;;5060481;28;20072;-56
2023/06/23 09:05:51;;;;;;;5.00;3.88;;;25.50;99.60;;;;;;5066370;28;20657;-56
2023/06/23 09:08:16;;;;;;;5.45;4.05;;;25.40;98.70;;;;;;5057406;28;20037;-55
2023/06/23 09:10:42;;;;;;;5.82;4.47;;;25.50;98.20;;;;;;5067758;28;20515;-55
2023/06/23 09:13:08;;;;;;;4.43;3.17;;;25.50;97.40;;;;;;5062046;28;20543;-56
2023/06/23 09:15:34;;;;;;;7.70;3.60;;;25.60;97.80;;;;;;5063149;28;20131;-56
2023/06/23 09:18:02;;;;;;;3.92;3.03;;;25.60;97.20;;;;;;5060174;28;20041;-56
2023/06/23 09:20:30;;;;;;;6.85;3.05;;;25.60;96.90;;;;;;5059812;28;20079;-56
2023/06/23 09:22:57;;;;;;;4.55;3.30;;;25.80;96.40;;;;;;5060822;28;20028;-56
2023/06/23 09:25:47;;;;;;;5.18;3.63;;;25.80;96.10;;;;;;5060066;28;20056;-56
2023/06/23 09:28:28;;;;;;;3.95;2.83;;;25.90;97.20;;;;;;5067334;28;20048;-56
2023/06/23 09:31:15;;;;;;;4.22;3.33;;;26.00;94.80;;;;;;5069690;28;20041;-56
2023/06/23 09:33:49;;;;;;;4.00;3.00;;;26.00;95.50;;;;;;5061521;28;20060;-56
2023/06/23 09:36:16;;;;;;;4.03;3.00;;;26.00;94.60;;;;;;5063773;28;20037;-55
2023/06/23 09:38:42;;;;;;;4.53;3.90;;;26.00;95.60;;;;;;5064302;28;20061;-56
2023/06/23 09:41:10;;;;;;;6.78;4.10;;;26.00;96.50;;;;;;5060732;28;20128;-55
2023/06/23 09:43:41;;;;;;;4.93;3.78;;;26.00;96.50;;;;;;5064359;28;20049;-56
2023/06/23 09:46:09;;;;;;;5.47;4.30;;;25.90;96.80;;;;;;5064435;28;20052;-54
2023/06/23 09:48:35;;;;;;;4.93;3.85;;;25.90;97.20;;;;;;5070634;28;20059;-56
2023/06/23 09:51:05;;;;;;;6.95;4.00;;;25.90;97.50;;;;;;5072264;28;20405;-56
2023/06/23 09:53:35;;;;;;;5.82;4.22;;;25.90;97.90;;;;;;5067515;28;20048;-56
2023/06/23 09:56:03;;;;;;;7.25;4.72;;;25.90;98.50;;;;;;5061831;28;20045;-56
2023/06/23 09:58:39;;;;;;;5.90;4.72;;;26.00;98.90;;;;;;5069242;28;20047;-55
2023/06/23 10:01:07;;;;;;;6.15;4.18;;;26.10;97.60;;;;;;5068635;28;20377;-54
2023/06/23 10:03:42;;;;;;;5.70;4.22;;;26.10;98.10;;;;;;5065688;28;20639;-56
2023/06/23 10:06:19;;;;;;;4.93;3.70;;;26.10;97.00;;;;;;5066561;28;20072;-56
2023/06/23 10:08:45;;;;;;;5.53;3.70;;;26.20;97.80;;;;;;5063861;28;20542;-57
2023/06/23 10:11:10;;;;;;;6.78;3.97;;;26.20;97.30;;;;;;5062531;28;20037;-57
2023/06/23 10:13:37;;;;;;;4.28;3.35;;;26.20;96.80;;;;;;5062841;28;20039;-57
2023/06/23 10:16:03;;;;;;;6.68;3.78;;;26.10;97.50;;;;;;5072132;28;20119;-57
2023/06/23 10:18:29;;;;;;;4.10;3.35;;;26.10;97.30;;;;;;5068144;28;20044;-57
2023/06/23 10:20:56;;;;;;;5.85;3.97;;;26.10;97.10;;;;;;5061164;28;20087;-57
2023/06/23 10:23:23;;;;;;;5.47;3.50;;;26.00;96.30;;;;;;5060205;28;20056;-57
2023/06/23 10:25:54;;;;;;;5.85;3.10;;;26.00;96.50;;;;;;5066961;28;20052;-58
2023/06/23 10:28:22;;;;;;;5.75;3.63;;;25.90;96.10;;;;;;5065222;28;20048;-57
2023/06/23 10:30:49;;;;;;;4.60;3.45;;;25.80;95.90;;;;;;5073228;28;21024;-58
2023/06/23 10:33:19;;;;;;;4.45;2.78;;;25.70;96.30;;;;;;5064743;28;20045;-58
2023/06/23 10:35:48;;;;;;;4.88;2.58;;;25.60;95.40;;;;;;5064923;28;20029;-57
2023/06/23 10:38:18;;;;;;;5.00;2.67;;;25.50;94.70;;;;;;5068537;28;20037;-57
2023/06/23 10:40:50;;;;;;;5.45;3.13;;;25.40;95.00;;;;;;5062473;28;20078;-57
2023/06/23 10:43:18;;;;;;;5.28;3.40;;;25.30;95.70;;;;;;5064794;28;20040;-57
2023/06/23 10:45:44;;;;;;;5.75;3.60;;;25.30;96.20;;;;;;5066080;28;20526;-57
2023/06/23 10:48:11;;;;;;;5.32;3.20;;;25.30;96.30;;;;;;5066604;28;20049;-57
2023/06/23 10:50:39;;;;;;;4.53;3.35;;;25.10;96.10;;;;;;5058248;28;20053;-57
2023/06/23 10:53:16;;;;;;;5.22;3.35;;;25.00;96.10;;;;;;5064170;28;20413;-57
2023/06/23 10:55:46;;;;;;;7.32;3.53;;;24.90;96.80;;;;;;5068641;28;20052;-57
2023/06/23 10:58:19;;;;;;;5.32;3.28;;;24.90;96.60;;;;;;5064029;28;20044;-57
2023/06/23 11:00:57;;;;;;;7.55;3.20;;;24.90;95.90;;;;;;5066790;28;20121;-57
2023/06/23 11:03:32;;;;;;;3.85;2.75;;;25.00;96.10;;;;;;5069921;28;20076;-57
2023/06/23 11:06:02;;;;;;;5.20;2.85;;;24.90;96.00;;;;;;5063315;28;20060;-58
2023/06/23 11:08:34;;;;;;;5.95;3.00;;;25.00;95.90;;;;;;5058672;28;20037;-58
2023/06/23 11:11:07;;;;;;;4.38;3.47;;;25.10;95.30;;;;;;5068488;28;20041;-55
2023/06/23 11:13:35;;;;;;;5.25;3.60;;;25.20;96.00;;;;;;5057108;28;20102;-55
2023/06/23 11:16:02;;;;;;;5.15;3.53;;;25.20;96.70;;;;;;5064484;28;20049;-56
2023/06/23 11:18:28;;;;;;;5.30;3.53;;;25.30;96.50;;;;;;5065355;28;20117;-55
2023/06/23 11:21:00;;;;;;;4.03;3.53;;;25.40;94.90;;;;;;5062195;28;20033;-56
2023/06/23 11:23:26;;;;;;;5.88;3.80;;;25.40;94.60;;;;;;5064717;28;20463;-56
2023/06/23 11:25:54;;;;;;;5.65;3.88;;;25.30;94.40;;;;;;5061021;28;20044;-56
2023/06/23 11:28:37;;;;;;;5.03;3.97;;;25.20;94.40;;;;;;5064610;28;20056;-56
2023/06/23 11:31:17;;;;;;;6.72;3.63;;;25.30;94.70;;;;;;5066773;28;20048;-55
2023/06/23 11:33:44;;;;;;;5.68;3.67;;;25.20;94.60;;;;;;5060813;28;20088;-56
2023/06/23 11:36:13;;;;;;;5.93;3.33;;;25.20;94.40;;;;;;5061025;28;20087;-56
2023/06/23 11:38:40;;;;;;;4.10;3.22;;;25.30;94.30;;;;;;5063507;28;21420;-56
2023/06/23 11:41:06;;;;;;;4.93;3.72;;;25.50;94.90;;;;;;5069987;28;20043;-56
2023/06/23 11:43:39;;;;;;;4.35;3.75;;;25.50;94.60;;;;;;5064972;28;20049;-55
2023/06/23 11:46:06;;;;;;;4.78;3.30;;;25.70;94.60;;;;;;5061535;28;20055;-56
2023/06/23 11:48:32;;;;;;;4.47;3.25;;;25.90;94.50;;;;;;5063602;28;20033;-56
2023/06/23 11:50:59;;;;;;;4.55;3.00;;;25.90;93.30;;;;;;5066932;28;20058;-56
2023/06/23 11:53:26;;;;;;;3.95;3.10;;;26.00;93.00;;;;;;5068742;28;20041;-57
2023/06/23 11:55:52;;;;;;;4.07;3.00;;;26.10;92.60;;;;;;5062689;28;20074;-55
2023/06/23 11:58:18;;;;;;;5.65;3.33;;;26.10;91.00;;;;;;5065417;28;20045;-55
2023/06/23 12:00:44;;;;;;;4.30;3.20;;;26.00;90.80;;;;;;5066710;28;20037;-55
2023/06/23 12:03:14;;;;;;;4.03;3.22;;;26.00;90.80;;;;;;5066754;28;20068;-54
2023/06/23 12:05:43;;;;;;;7.05;3.30;;;26.00;90.70;;;;;;5061664;28;20056;-55
2023/06/23 12:08:09;;;;;;;4.50;3.15;;;26.00;88.40;;;;;;5069743;28;20044;-56
2023/06/23 12:10:40;;;;;;;4.32;3.30;;;25.90;90.00;;;;;;5064277;28;20044;-56
2023/06/23 12:13:16;;;;;;;7.10;3.95;;;26.00;88.90;;;;;;5067349;28;20436;-54
2023/06/23 12:15:43;;;;;;;9.00;3.63;;;25.90;88.80;;;;;;5068136;28;20044;-56
2023/06/23 12:18:09;;;;;;;5.97;3.20;;;25.90;89.00;;;;;;5066389;28;20057;-56
2023/06/23 12:20:36;;;;;;;5.45;3.00;;;25.90;88.50;;;;;;5061129;28;20079;-56
2023/06/23 12:23:05;;;;;;;5.68;3.00;;;26.00;87.70;;;;;;5061070;28;20574;-56
2023/06/23 12:25:38;;;;;;;5.00;3.10;;;26.10;87.70;;;;;;5065897;28;20044;-57
2023/06/23 12:28:05;;;;;;;6.15;3.25;;;26.30;88.40;;;;;;5056211;28;20102;-55
2023/06/23 12:30:43;;;;;;;7.00;3.80;;;26.50;89.20;;;;;;5064028;28;20079;-56
2023/06/23 12:33:16;;;;;;;5.22;3.25;;;26.60;88.70;;;;;;5062993;28;20501;-55
2023/06/23 12:36:04;;;;;;;8.02;3.58;;;26.80;87.60;;;;;;5065723;28;20041;-56
2023/06/23 12:38:32;;;;;;;4.43;3.30;;;27.00;84.90;;;;;;5069283;28;20045;-56
2023/06/23 12:41:26;;;;;;;4.72;2.90;;;27.10;86.30;;;;;;5066916;28;20040;-55
2023/06/23 12:44:03;;;;;;;4.72;3.10;;;27.30;84.30;;;;;;5059588;28;20037;-54
2023/06/23 12:46:31;;;;;;;5.10;3.25;;;27.40;84.90;;;;;;5058250;28;20051;-56